sensor_id;sensor_type;location;lat;lon;timestamp;pressure;altitude;pressure_sealevel;temperature;humidity
11017;BME280;54687;50.800;6.772;2023-02-15T00:00:16;61176.75;;;-144.06;64.18
11017;BME280;54687;50.800;6.772;2023-02-15T00:02:43;61195.63;;;-144.06;64.49
11017;BME280;54687;50.800;6.772;2023-02-15T00:05:11;61201.91;;;-144.06;64.14
11017;BME280;54687;50.800;6.772;2023-02-15T00:07:38;61183.06;;;-144.06;64.38
11017;BME280;54687;50.800;6.772;2023-02-15T00:10:06;61176.75;;;-144.06;64.39
11017;BME280;54687;50.800;6.772;2023-02-15T00:12:33;61180.97;;;-144.06;64.53
11017;BME280;54687;50.800;6.772;2023-02-15T00:14:59;61197.72;;;-144.06;64.01
11017;BME280;54687;50.800;6.772;2023-02-15T00:17:27;61189.34;;;-144.06;64.51
11017;BME280;54687;50.800;6.772;2023-02-15T00:19:53;61185.16;;;-144.06;64.50
11017;BME280;54687;50.800;6.772;2023-02-15T00:22:21;61172.56;;;-144.06;64.07
11017;BME280;54687;50.800;6.772;2023-02-15T00:24:48;61180.97;;;-144.06;64.67
11017;BME280;54687;50.800;6.772;2023-02-15T00:27:15;61160.00;;;-144.06;64.50
11017;BME280;54687;50.800;6.772;2023-02-15T00:29:41;61178.84;;;-144.06;64.59
11017;BME280;54687;50.800;6.772;2023-02-15T00:32:08;61191.44;;;-144.06;64.43
11017;BME280;54687;50.800;6.772;2023-02-15T00:34:35;61204.00;;;-144.06;64.13
11017;BME280;54687;50.800;6.772;2023-02-15T00:37:01;61214.50;;;-144.06;64.16
11017;BME280;54687;50.800;6.772;2023-02-15T00:39:29;61174.66;;;-144.06;64.97
11017;BME280;54687;50.800;6.772;2023-02-15T00:41:56;61218.69;;;-144.06;64.87
11017;BME280;54687;50.800;6.772;2023-02-15T00:44:23;61201.91;;;-144.06;64.45
11017;BME280;54687;50.800;6.772;2023-02-15T00:46:49;61204.00;;;-144.06;64.66
11017;BME280;54687;50.800;6.772;2023-02-15T00:49:16;61180.97;;;-144.06;64.65
11017;BME280;54687;50.800;6.772;2023-02-15T00:51:42;61197.72;;;-144.06;64.55
11017;BME280;54687;50.800;6.772;2023-02-15T00:54:09;61206.09;;;-144.06;64.97
11017;BME280;54687;50.800;6.772;2023-02-15T00:56:37;61164.19;;;-144.06;64.77
11017;BME280;54687;50.800;6.772;2023-02-15T00:59:03;61149.50;;;-144.06;64.55
11017;BME280;54687;50.800;6.772;2023-02-15T01:01:30;61212.41;;;-144.06;64.82
11017;BME280;54687;50.800;6.772;2023-02-15T01:03:57;61193.53;;;-144.06;64.46
11017;BME280;54687;50.800;6.772;2023-02-15T01:06:24;61199.81;;;-144.06;64.76
11017;BME280;54687;50.800;6.772;2023-02-15T01:08:50;61206.09;;;-144.06;65.06
11017;BME280;54687;50.800;6.772;2023-02-15T01:11:19;61183.06;;;-144.06;64.85
11017;BME280;54687;50.800;6.772;2023-02-15T01:13:49;61178.84;;;-144.06;64.70
11017;BME280;54687;50.800;6.772;2023-02-15T01:16:16;61164.19;;;-144.06;64.97
11017;BME280;54687;50.800;6.772;2023-02-15T01:18:43;61170.47;;;-144.06;64.90
11017;BME280;54687;50.800;6.772;2023-02-15T01:21:11;61180.97;;;-144.06;64.87
11017;BME280;54687;50.800;6.772;2023-02-15T01:23:39;61187.25;;;-144.06;64.63
11017;BME280;54687;50.800;6.772;2023-02-15T01:26:06;61222.88;;;-144.06;64.93
11017;BME280;54687;50.800;6.772;2023-02-15T01:28:33;61201.91;;;-144.06;65.08
11017;BME280;54687;50.800;6.772;2023-02-15T01:31:06;61180.97;;;-144.06;64.88
11017;BME280;54687;50.800;6.772;2023-02-15T01:33:33;61189.34;;;-144.06;65.26
11017;BME280;54687;50.800;6.772;2023-02-15T01:36:00;61170.47;;;-144.06;65.22
11017;BME280;54687;50.800;6.772;2023-02-15T01:38:27;61193.53;;;-144.06;65.13
11017;BME280;54687;50.800;6.772;2023-02-15T01:40:54;61206.09;;;-144.06;65.18
11017;BME280;54687;50.800;6.772;2023-02-15T01:43:42;61187.25;;;-144.06;65.06
11017;BME280;54687;50.800;6.772;2023-02-15T01:46:13;61201.91;;;-144.06;65.33
11017;BME280;54687;50.800;6.772;2023-02-15T01:48:43;61189.34;;;-144.06;64.77
11017;BME280;54687;50.800;6.772;2023-02-15T01:51:11;61166.28;;;-144.06;64.87
11017;BME280;54687;50.800;6.772;2023-02-15T01:53:42;61183.06;;;-144.06;64.50
11017;BME280;54687;50.800;6.772;2023-02-15T01:56:13;61204.00;;;-144.06;64.70
11017;BME280;54687;50.800;6.772;2023-02-15T01:58:42;61151.59;;;-144.06;64.80
11017;BME280;54687;50.800;6.772;2023-02-15T02:01:10;61218.69;;;-144.06;64.64
11017;BME280;54687;50.800;6.772;2023-02-15T02:03:43;61155.81;;;-144.06;65.06
11017;BME280;54687;50.800;6.772;2023-02-15T02:06:14;61183.06;;;-144.06;64.95
11017;BME280;54687;50.800;6.772;2023-02-15T02:08:42;61189.34;;;-144.06;64.72
11017;BME280;54687;50.800;6.772;2023-02-15T02:11:10;61201.91;;;-144.06;64.80
11017;BME280;54687;50.800;6.772;2023-02-15T02:13:37;61208.22;;;-144.06;64.52
11017;BME280;54687;50.800;6.772;2023-02-15T02:16:08;61227.06;;;-144.06;65.02
11017;BME280;54687;50.800;6.772;2023-02-15T02:18:45;61210.31;;;-144.06;64.88
11017;BME280;54687;50.800;6.772;2023-02-15T02:27:33;61201.91;;;-144.06;64.65
11017;BME280;54687;50.800;6.772;2023-02-15T02:30:34;61197.72;;;-144.06;65.16
11017;BME280;54687;50.800;6.772;2023-02-15T02:35:59;61204.00;;;-144.06;65.12
11017;BME280;54687;50.800;6.772;2023-02-15T02:38:34;61166.28;;;-144.06;64.85
11017;BME280;54687;50.800;6.772;2023-02-15T02:41:13;61210.31;;;-144.06;64.91
11017;BME280;54687;50.800;6.772;2023-02-15T02:43:48;61206.09;;;-144.06;64.92
11017;BME280;54687;50.800;6.772;2023-02-15T02:46:20;61218.69;;;-144.06;64.98
11017;BME280;54687;50.800;6.772;2023-02-15T02:48:49;61191.44;;;-144.06;65.32
11017;BME280;54687;50.800;6.772;2023-02-15T02:51:16;61231.25;;;-144.06;64.78
11017;BME280;54687;50.800;6.772;2023-02-15T02:53:49;61172.56;;;-144.06;65.03
11017;BME280;54687;50.800;6.772;2023-02-15T02:56:21;61218.69;;;-144.06;65.10
11017;BME280;54687;50.800;6.772;2023-02-15T02:58:55;61206.09;;;-144.06;65.24
11017;BME280;54687;50.800;6.772;2023-02-15T03:01:26;61189.34;;;-144.06;65.04
11017;BME280;54687;50.800;6.772;2023-02-15T03:03:57;61143.22;;;-144.06;64.97
11017;BME280;54687;50.800;6.772;2023-02-15T03:06:31;61187.25;;;-144.06;65.51
11017;BME280;54687;50.800;6.772;2023-02-15T03:09:04;61220.78;;;-144.06;65.32
11017;BME280;54687;50.800;6.772;2023-02-15T03:11:41;61201.91;;;-144.06;65.35
11017;BME280;54687;50.800;6.772;2023-02-15T03:14:10;61199.81;;;-144.06;65.38
11017;BME280;54687;50.800;6.772;2023-02-15T03:16:38;61183.06;;;-144.06;65.49
11017;BME280;54687;50.800;6.772;2023-02-15T03:19:09;61199.81;;;-144.06;65.43
11017;BME280;54687;50.800;6.772;2023-02-15T03:21:42;61174.66;;;-144.06;65.69
11017;BME280;54687;50.800;6.772;2023-02-15T03:24:17;61197.72;;;-144.06;65.88
11017;BME280;54687;50.800;6.772;2023-02-15T03:26:48;61174.66;;;-144.06;65.87
11017;BME280;54687;50.800;6.772;2023-02-15T03:29:16;61197.72;;;-144.06;65.98
11017;BME280;54687;50.800;6.772;2023-02-15T03:31:46;61201.91;;;-144.06;65.50
11017;BME280;54687;50.800;6.772;2023-02-15T03:34:17;61143.22;;;-144.06;65.65
11017;BME280;54687;50.800;6.772;2023-02-15T03:36:46;61189.34;;;-144.06;65.83
11017;BME280;54687;50.800;6.772;2023-02-15T03:39:20;61187.25;;;-144.06;65.79
11017;BME280;54687;50.800;6.772;2023-02-15T03:41:55;61210.31;;;-144.06;65.78
11017;BME280;54687;50.800;6.772;2023-02-15T03:44:27;61218.69;;;-144.06;65.78
11017;BME280;54687;50.800;6.772;2023-02-15T03:47:00;61183.06;;;-144.06;65.97
11017;BME280;54687;50.800;6.772;2023-02-15T03:49:36;61168.38;;;-144.06;65.78
11017;BME280;54687;50.800;6.772;2023-02-15T03:52:06;61220.78;;;-144.06;65.65
11017;BME280;54687;50.800;6.772;2023-02-15T03:54:35;61218.69;;;-144.06;65.47
11017;BME280;54687;50.800;6.772;2023-02-15T03:57:11;61208.22;;;-144.06;65.41
11017;BME280;54687;50.800;6.772;2023-02-15T03:59:56;61176.75;;;-144.06;65.54
11017;BME280;54687;50.800;6.772;2023-02-15T04:02:50;61233.38;;;-144.06;65.55
11017;BME280;54687;50.800;6.772;2023-02-15T04:05:20;61197.72;;;-144.06;65.50
11017;BME280;54687;50.800;6.772;2023-02-15T04:07:47;61208.22;;;-144.06;65.87
11017;BME280;54687;50.800;6.772;2023-02-15T04:10:14;61191.44;;;-144.06;65.41
11017;BME280;54687;50.800;6.772;2023-02-15T04:12:58;61199.81;;;-144.06;65.80
11017;BME280;54687;50.800;6.772;2023-02-15T04:15:24;61185.16;;;-144.06;65.76
11017;BME280;54687;50.800;6.772;2023-02-15T04:18:08;61193.53;;;-144.06;65.88
11017;BME280;54687;50.800;6.772;2023-02-15T04:20:36;61193.53;;;-144.06;65.92
11017;BME280;54687;50.800;6.772;2023-02-15T04:23:20;61183.06;;;-144.06;66.14
11017;BME280;54687;50.800;6.772;2023-02-15T04:26:05;61174.66;;;-144.06;66.16
11017;BME280;54687;50.800;6.772;2023-02-15T04:28:31;61199.81;;;-144.06;66.08
11017;BME280;54687;50.800;6.772;2023-02-15T04:30:58;61189.34;;;-144.06;66.37
11017;BME280;54687;50.800;6.772;2023-02-15T04:33:24;61218.69;;;-144.06;65.94
11017;BME280;54687;50.800;6.772;2023-02-15T04:35:52;61164.19;;;-144.06;65.84
11017;BME280;54687;50.800;6.772;2023-02-15T04:38:19;61185.16;;;-144.06;66.36
11017;BME280;54687;50.800;6.772;2023-02-15T04:40:49;61199.81;;;-144.06;66.24
11017;BME280;54687;50.800;6.772;2023-02-15T04:43:16;61214.50;;;-144.06;65.97
11017;BME280;54687;50.800;6.772;2023-02-15T04:45:47;61180.97;;;-144.06;66.00
11017;BME280;54687;50.800;6.772;2023-02-15T04:48:14;61201.91;;;-144.06;66.24
11017;BME280;54687;50.800;6.772;2023-02-15T04:50:41;61210.31;;;-144.06;66.18
11017;BME280;54687;50.800;6.772;2023-02-15T04:53:09;61206.09;;;-144.06;66.22
11017;BME280;54687;50.800;6.772;2023-02-15T04:55:35;61191.44;;;-144.06;66.22
11017;BME280;54687;50.800;6.772;2023-02-15T04:58:02;61197.72;;;-144.06;66.50
11017;BME280;54687;50.800;6.772;2023-02-15T05:00:29;61210.31;;;-144.06;66.22
11017;BME280;54687;50.800;6.772;2023-02-15T05:02:55;61216.59;;;-144.06;66.18
11017;BME280;54687;50.800;6.772;2023-02-15T05:05:22;61199.81;;;-144.06;66.31
11017;BME280;54687;50.800;6.772;2023-02-15T05:07:49;61235.47;;;-144.06;66.27
11017;BME280;54687;50.800;6.772;2023-02-15T05:10:17;61197.72;;;-144.06;66.34
11017;BME280;54687;50.800;6.772;2023-02-15T05:12:44;61180.97;;;-144.06;66.04
11017;BME280;54687;50.800;6.772;2023-02-15T05:15:10;61174.66;;;-144.06;66.14
11017;BME280;54687;50.800;6.772;2023-02-15T05:17:37;61185.16;;;-144.06;66.09
11017;BME280;54687;50.800;6.772;2023-02-15T05:20:05;61214.50;;;-144.06;66.18
11017;BME280;54687;50.800;6.772;2023-02-15T05:22:32;61176.75;;;-144.06;66.06
11017;BME280;54687;50.800;6.772;2023-02-15T05:24:59;61180.97;;;-144.06;66.43
11017;BME280;54687;50.800;6.772;2023-02-15T05:27:44;61193.53;;;-144.06;66.41
11017;BME280;54687;50.800;6.772;2023-02-15T05:30:28;61197.72;;;-144.06;66.49
11017;BME280;54687;50.800;6.772;2023-02-15T05:32:55;61206.09;;;-144.06;66.28
11017;BME280;54687;50.800;6.772;2023-02-15T05:35:22;61170.47;;;-144.06;66.54
11017;BME280;54687;50.800;6.772;2023-02-15T05:37:49;61197.72;;;-144.06;66.64
11017;BME280;54687;50.800;6.772;2023-02-15T05:40:15;61204.00;;;-144.06;66.19
11017;BME280;54687;50.800;6.772;2023-02-15T05:42:42;61197.72;;;-144.06;66.22
11017;BME280;54687;50.800;6.772;2023-02-15T05:45:10;61193.53;;;-144.06;66.17
11017;BME280;54687;50.800;6.772;2023-02-15T05:47:37;61206.09;;;-144.06;66.49
11017;BME280;54687;50.800;6.772;2023-02-15T05:50:04;61218.69;;;-144.06;66.24
11017;BME280;54687;50.800;6.772;2023-02-15T05:52:31;61180.97;;;-144.06;66.19
11017;BME280;54687;50.800;6.772;2023-02-15T05:54:58;61210.31;;;-144.06;66.01
11017;BME280;54687;50.800;6.772;2023-02-15T05:57:26;61185.16;;;-144.06;65.88
11017;BME280;54687;50.800;6.772;2023-02-15T05:59:52;61201.91;;;-144.06;65.74
11017;BME280;54687;50.800;6.772;2023-02-15T06:02:20;61187.25;;;-144.06;66.16
11017;BME280;54687;50.800;6.772;2023-02-15T06:04:47;61172.56;;;-144.06;66.35
11017;BME280;54687;50.800;6.772;2023-02-15T06:07:14;61216.59;;;-144.06;66.32
11017;BME280;54687;50.800;6.772;2023-02-15T06:09:40;61214.50;;;-144.06;66.04
11017;BME280;54687;50.800;6.772;2023-02-15T06:12:07;61222.88;;;-144.06;66.22
11017;BME280;54687;50.800;6.772;2023-02-15T06:14:34;61151.59;;;-144.06;66.22
11017;BME280;54687;50.800;6.772;2023-02-15T06:17:00;61195.63;;;-144.06;66.32
11017;BME280;54687;50.800;6.772;2023-02-15T06:19:28;61199.81;;;-144.06;66.15
11017;BME280;54687;50.800;6.772;2023-02-15T06:21:55;61197.72;;;-144.06;66.15
11017;BME280;54687;50.800;6.772;2023-02-15T06:24:21;61185.16;;;-144.06;66.27
11017;BME280;54687;50.800;6.772;2023-02-15T06:26:48;61197.72;;;-144.06;66.24
11017;BME280;54687;50.800;6.772;2023-02-15T06:29:15;61180.97;;;-144.06;66.40
11017;BME280;54687;50.800;6.772;2023-02-15T06:31:41;61214.50;;;-144.06;66.20
11017;BME280;54687;50.800;6.772;2023-02-15T06:34:08;61197.72;;;-144.06;66.32
11017;BME280;54687;50.800;6.772;2023-02-15T06:36:36;61197.72;;;-144.06;66.46
11017;BME280;54687;50.800;6.772;2023-02-15T06:39:03;61185.16;;;-144.06;66.25
11017;BME280;54687;50.800;6.772;2023-02-15T06:41:30;61176.75;;;-144.06;65.90
11017;BME280;54687;50.800;6.772;2023-02-15T06:43:57;61216.59;;;-144.06;66.37
11017;BME280;54687;50.800;6.772;2023-02-15T06:46:23;61216.59;;;-144.06;66.26
11017;BME280;54687;50.800;6.772;2023-02-15T06:48:50;61141.13;;;-144.06;66.23
11017;BME280;54687;50.800;6.772;2023-02-15T06:51:17;61199.81;;;-144.06;66.19
11017;BME280;54687;50.800;6.772;2023-02-15T06:53:45;61189.34;;;-144.06;66.24
11017;BME280;54687;50.800;6.772;2023-02-15T06:56:11;61180.97;;;-144.06;66.29
11017;BME280;54687;50.800;6.772;2023-02-15T06:58:39;61143.22;;;-144.06;66.35
11017;BME280;54687;50.800;6.772;2023-02-15T07:01:06;61185.16;;;-144.06;66.03
11017;BME280;54687;50.800;6.772;2023-02-15T07:03:34;61197.72;;;-144.06;66.14
11017;BME280;54687;50.800;6.772;2023-02-15T07:06:02;61218.69;;;-144.06;66.09
11017;BME280;54687;50.800;6.772;2023-02-15T07:08:31;61214.50;;;-144.06;65.96
11017;BME280;54687;50.800;6.772;2023-02-15T07:10:59;61170.47;;;-144.06;66.10
11017;BME280;54687;50.800;6.772;2023-02-15T07:13:40;61195.63;;;-144.06;65.86
11017;BME280;54687;50.800;6.772;2023-02-15T07:16:08;61170.47;;;-144.06;65.70
11017;BME280;54687;50.800;6.772;2023-02-15T07:18:35;61187.25;;;-144.06;65.57
11017;BME280;54687;50.800;6.772;2023-02-15T07:21:02;61180.97;;;-144.06;65.73
11017;BME280;54687;50.800;6.772;2023-02-15T07:23:29;61193.53;;;-144.06;65.58
11017;BME280;54687;50.800;6.772;2023-02-15T07:25:56;61172.56;;;-144.06;65.61
11017;BME280;54687;50.800;6.772;2023-02-15T07:28:24;61139.03;;;-144.06;65.25
11017;BME280;54687;50.800;6.772;2023-02-15T07:30:51;61222.88;;;-144.06;65.20
11017;BME280;54687;50.800;6.772;2023-02-15T07:33:18;61166.28;;;-144.06;64.90
11017;BME280;54687;50.800;6.772;2023-02-15T07:35:53;61222.88;;;-144.06;64.72
11017;BME280;54687;50.800;6.772;2023-02-15T07:38:21;61227.06;;;-144.06;64.78
11017;BME280;54687;50.800;6.772;2023-02-15T07:40:47;61212.41;;;-144.06;64.55
11017;BME280;54687;50.800;6.772;2023-02-15T07:43:14;61185.16;;;-144.06;64.26
11017;BME280;54687;50.800;6.772;2023-02-15T07:45:42;61191.44;;;-144.06;64.61
11017;BME280;54687;50.800;6.772;2023-02-15T07:48:09;61143.22;;;-144.06;64.64
11017;BME280;54687;50.800;6.772;2023-02-15T07:50:36;61193.53;;;-144.06;63.86
11017;BME280;54687;50.800;6.772;2023-02-15T07:53:03;61214.50;;;-144.06;64.08
11017;BME280;54687;50.800;6.772;2023-02-15T07:55:30;61168.38;;;-144.06;64.02
11017;BME280;54687;50.800;6.772;2023-02-15T07:57:57;61172.56;;;-144.06;64.13
11017;BME280;54687;50.800;6.772;2023-02-15T08:00:23;61201.91;;;-144.06;63.74
11017;BME280;54687;50.800;6.772;2023-02-15T08:02:54;61185.16;;;-144.06;63.51
11017;BME280;54687;50.800;6.772;2023-02-15T08:05:41;61168.38;;;-144.06;63.47
11017;BME280;54687;50.800;6.772;2023-02-15T08:08:08;61189.34;;;-144.06;63.24
11017;BME280;54687;50.800;6.772;2023-02-15T08:10:58;61176.75;;;-144.06;63.37
11017;BME280;54687;50.800;6.772;2023-02-15T08:13:43;61164.19;;;-144.06;62.80
11017;BME280;54687;50.800;6.772;2023-02-15T08:16:20;61206.09;;;-144.06;62.89
11017;BME280;54687;50.800;6.772;2023-02-15T08:18:48;61216.59;;;-144.06;62.33
11017;BME280;54687;50.800;6.772;2023-02-15T08:21:15;61231.25;;;-144.06;62.21
11017;BME280;54687;50.800;6.772;2023-02-15T08:23:41;61189.34;;;-144.06;62.23
11017;BME280;54687;50.800;6.772;2023-02-15T08:26:08;61189.34;;;-144.06;62.32
11017;BME280;54687;50.800;6.772;2023-02-15T08:28:35;61155.81;;;-144.06;61.98
11017;BME280;54687;50.800;6.772;2023-02-15T08:31:05;61222.88;;;-144.06;61.83
11017;BME280;54687;50.800;6.772;2023-02-15T08:33:33;61113.88;;;-144.06;61.45
11017;BME280;54687;50.800;6.772;2023-02-15T08:36:04;61160.00;;;-144.06;61.15
11017;BME280;54687;50.800;6.772;2023-02-15T08:38:30;61193.53;;;-144.06;61.01
11017;BME280;54687;50.800;6.772;2023-02-15T08:40:57;61172.56;;;-144.06;60.60
11017;BME280;54687;50.800;6.772;2023-02-15T08:43:24;61149.50;;;-144.06;59.94
11017;BME280;54687;50.800;6.772;2023-02-15T08:45:51;61172.56;;;-144.06;59.94
11017;BME280;54687;50.800;6.772;2023-02-15T08:48:17;61176.75;;;-144.06;59.80
11017;BME280;54687;50.800;6.772;2023-02-15T08:50:44;61174.66;;;-144.06;59.19
11017;BME280;54687;50.800;6.772;2023-02-15T08:53:12;61201.91;;;-144.06;59.40
11017;BME280;54687;50.800;6.772;2023-02-15T08:55:39;61189.34;;;-144.06;59.19
11017;BME280;54687;50.800;6.772;2023-02-15T08:58:06;61201.91;;;-144.06;59.06
11017;BME280;54687;50.800;6.772;2023-02-15T09:00:32;61176.75;;;-144.06;58.83
11017;BME280;54687;50.800;6.772;2023-02-15T09:03:00;61193.53;;;-144.06;58.93
11017;BME280;54687;50.800;6.772;2023-02-15T09:05:27;61180.97;;;-144.06;58.57
11017;BME280;54687;50.800;6.772;2023-02-15T09:07:54;61189.34;;;-144.06;58.57
11017;BME280;54687;50.800;6.772;2023-02-15T09:10:22;61176.75;;;-144.06;58.45
11017;BME280;54687;50.800;6.772;2023-02-15T09:12:48;61197.72;;;-144.06;58.23
11017;BME280;54687;50.800;6.772;2023-02-15T09:15:16;61193.53;;;-144.06;57.98
11017;BME280;54687;50.800;6.772;2023-02-15T09:17:42;61172.56;;;-144.06;57.96
11017;BME280;54687;50.800;6.772;2023-02-15T09:20:09;61197.72;;;-144.06;57.56
11017;BME280;54687;50.800;6.772;2023-02-15T09:22:38;61151.59;;;-144.06;57.51
11017;BME280;54687;50.800;6.772;2023-02-15T09:25:05;61178.84;;;-144.06;57.69
11017;BME280;54687;50.800;6.772;2023-02-15T09:27:33;61157.91;;;-144.06;57.07
11017;BME280;54687;50.800;6.772;2023-02-15T09:30:01;61122.25;;;-144.06;57.14
11017;BME280;54687;50.800;6.772;2023-02-15T09:32:29;61172.56;;;-144.06;56.71
11017;BME280;54687;50.800;6.772;2023-02-15T09:34:55;61145.31;;;-144.06;56.44
11017;BME280;54687;50.800;6.772;2023-02-15T09:37:22;61176.75;;;-144.06;55.93
11017;BME280;54687;50.800;6.772;2023-02-15T09:39:49;61157.91;;;-144.06;56.29
11017;BME280;54687;50.800;6.772;2023-02-15T09:45:16;61172.56;;;-144.06;55.82
11017;BME280;54687;50.800;6.772;2023-02-15T09:48:03;61155.81;;;-144.06;55.46
11017;BME280;54687;50.800;6.772;2023-02-15T09:50:43;61151.59;;;-144.06;54.85
11017;BME280;54687;50.800;6.772;2023-02-15T09:53:22;61151.59;;;-144.06;54.95
11017;BME280;54687;50.800;6.772;2023-02-15T09:55:58;61197.72;;;-144.06;54.54
11017;BME280;54687;50.800;6.772;2023-02-15T09:58:37;61151.59;;;-144.06;54.17
11017;BME280;54687;50.800;6.772;2023-02-15T10:01:13;61153.69;;;-144.06;53.39
11017;BME280;54687;50.800;6.772;2023-02-15T10:03:54;61162.09;;;-144.06;53.38
11017;BME280;54687;50.800;6.772;2023-02-15T10:06:31;61126.44;;;-144.06;53.50
11017;BME280;54687;50.800;6.772;2023-02-15T10:09:06;61160.00;;;-144.06;53.26
11017;BME280;54687;50.800;6.772;2023-02-15T10:11:49;61130.66;;;-144.06;52.53
11017;BME280;54687;50.800;6.772;2023-02-15T10:14:31;61172.56;;;-144.06;52.22
11017;BME280;54687;50.800;6.772;2023-02-15T10:17:14;61153.69;;;-144.06;52.45
11017;BME280;54687;50.800;6.772;2023-02-15T10:19:52;61151.59;;;-144.06;52.26
11017;BME280;54687;50.800;6.772;2023-02-15T10:22:36;61139.03;;;-144.06;52.44
11017;BME280;54687;50.800;6.772;2023-02-15T10:25:16;61160.00;;;-144.06;52.82
11017;BME280;54687;50.800;6.772;2023-02-15T10:27:48;61130.66;;;-144.06;52.77
11017;BME280;54687;50.800;6.772;2023-02-15T10:30:15;61166.28;;;-144.06;52.61
11017;BME280;54687;50.800;6.772;2023-02-15T10:32:52;61122.25;;;-144.06;52.51
11017;BME280;54687;50.800;6.772;2023-02-15T10:35:26;61134.84;;;-144.06;52.37
11017;BME280;54687;50.800;6.772;2023-02-15T10:38:10;61145.31;;;-144.06;52.32
11017;BME280;54687;50.800;6.772;2023-02-15T10:40:49;61122.25;;;-144.06;51.97
11017;BME280;54687;50.800;6.772;2023-02-15T10:43:27;61111.78;;;-144.06;51.80
11017;BME280;54687;50.800;6.772;2023-02-15T10:46:05;61120.16;;;-144.06;51.55
11017;BME280;54687;50.800;6.772;2023-02-15T10:48:55;61143.22;;;-144.06;51.21
11017;BME280;54687;50.800;6.772;2023-02-15T10:51:35;61170.47;;;-144.06;51.07
11017;BME280;54687;50.800;6.772;2023-02-15T10:54:17;61130.66;;;-144.06;50.92
11017;BME280;54687;50.800;6.772;2023-02-15T10:56:54;61164.19;;;-144.06;50.78
11017;BME280;54687;50.800;6.772;2023-02-15T10:59:37;61122.25;;;-144.06;50.50
11017;BME280;54687;50.800;6.772;2023-02-15T11:02:15;61130.66;;;-144.06;50.45
11017;BME280;54687;50.800;6.772;2023-02-15T11:05:07;61111.78;;;-144.06;50.31
11017;BME280;54687;50.800;6.772;2023-02-15T11:07:44;61099.19;;;-144.06;50.27
11017;BME280;54687;50.800;6.772;2023-02-15T11:10:22;61145.31;;;-144.06;49.95
11017;BME280;54687;50.800;6.772;2023-02-15T11:12:53;61130.66;;;-144.06;49.92
11017;BME280;54687;50.800;6.772;2023-02-15T11:15:26;61151.59;;;-144.06;50.01
11017;BME280;54687;50.800;6.772;2023-02-15T11:18:00;61134.84;;;-144.06;49.30
11017;BME280;54687;50.800;6.772;2023-02-15T11:20:31;61122.25;;;-144.06;49.48
11017;BME280;54687;50.800;6.772;2023-02-15T11:23:02;61128.53;;;-144.06;49.35
11017;BME280;54687;50.800;6.772;2023-02-15T11:25:30;61126.44;;;-144.06;49.03
11017;BME280;54687;50.800;6.772;2023-02-15T11:27:59;61128.53;;;-144.06;48.66
11017;BME280;54687;50.800;6.772;2023-02-15T11:30:29;61107.59;;;-144.06;48.32
11017;BME280;54687;50.800;6.772;2023-02-15T11:33:05;61122.25;;;-144.06;48.34
11017;BME280;54687;50.800;6.772;2023-02-15T11:35:47;61103.38;;;-144.06;47.94
11017;BME280;54687;50.800;6.772;2023-02-15T11:38:17;61097.09;;;-144.06;48.37
11017;BME280;54687;50.800;6.772;2023-02-15T11:40:47;61141.13;;;-144.06;48.12
11017;BME280;54687;50.800;6.772;2023-02-15T11:43:19;61082.44;;;-144.06;47.94
11017;BME280;54687;50.800;6.772;2023-02-15T11:45:48;61126.44;;;-144.06;47.63
11017;BME280;54687;50.800;6.772;2023-02-15T11:48:15;61097.09;;;-144.06;47.43
11017;BME280;54687;50.800;6.772;2023-02-15T11:50:44;61126.44;;;-144.06;47.68
11017;BME280;54687;50.800;6.772;2023-02-15T11:53:14;61113.88;;;-144.06;47.45
11017;BME280;54687;50.800;6.772;2023-02-15T11:55:43;61097.09;;;-144.06;47.24
11017;BME280;54687;50.800;6.772;2023-02-15T11:58:16;61130.66;;;-144.06;47.20
11017;BME280;54687;50.800;6.772;2023-02-15T12:00:49;61088.72;;;-144.06;47.34
11017;BME280;54687;50.800;6.772;2023-02-15T12:03:33;61107.59;;;-144.06;47.10
11017;BME280;54687;50.800;6.772;2023-02-15T12:06:04;61120.16;;;-144.06;46.92
11017;BME280;54687;50.800;6.772;2023-02-15T12:08:37;61076.13;;;-144.06;47.03
11017;BME280;54687;50.800;6.772;2023-02-15T12:11:07;61092.91;;;-144.06;46.70
11017;BME280;54687;50.800;6.772;2023-02-15T12:13:53;61113.88;;;-144.06;46.82
11017;BME280;54687;50.800;6.772;2023-02-15T12:16:20;61095.00;;;-144.06;47.07
11017;BME280;54687;50.800;6.772;2023-02-15T12:18:47;61113.88;;;-144.06;46.88
11017;BME280;54687;50.800;6.772;2023-02-15T12:21:25;61071.94;;;-144.06;46.62
11017;BME280;54687;50.800;6.772;2023-02-15T12:23:55;61092.91;;;-144.06;46.64
11017;BME280;54687;50.800;6.772;2023-02-15T12:26:26;61095.00;;;-144.06;46.57
11017;BME280;54687;50.800;6.772;2023-02-15T12:28:55;61101.28;;;-144.06;46.39
11017;BME280;54687;50.800;6.772;2023-02-15T12:31:30;61046.78;;;-144.06;46.42
11017;BME280;54687;50.800;6.772;2023-02-15T12:34:00;61113.88;;;-144.06;46.42
11017;BME280;54687;50.800;6.772;2023-02-15T12:36:32;61111.78;;;-144.06;46.40
11017;BME280;54687;50.800;6.772;2023-02-15T12:39:18;61082.44;;;-144.06;46.67
11017;BME280;54687;50.800;6.772;2023-02-15T12:41:56;61084.53;;;-144.06;46.27
11017;BME280;54687;50.800;6.772;2023-02-15T12:44:25;61067.75;;;-144.06;46.43
11017;BME280;54687;50.800;6.772;2023-02-15T12:46:56;61059.38;;;-144.06;46.18
11017;BME280;54687;50.800;6.772;2023-02-15T12:49:24;61126.44;;;-144.06;46.07
11017;BME280;54687;50.800;6.772;2023-02-15T12:51:54;61084.53;;;-144.06;45.77
11017;BME280;54687;50.800;6.772;2023-02-15T12:54:36;61051.00;;;-144.06;45.93
11017;BME280;54687;50.800;6.772;2023-02-15T12:57:25;61090.81;;;-144.06;45.88
11017;BME280;54687;50.800;6.772;2023-02-15T12:59:54;61042.59;;;-144.06;45.99
11017;BME280;54687;50.800;6.772;2023-02-15T13:02:25;61067.75;;;-144.06;46.26
11017;BME280;54687;50.800;6.772;2023-02-15T13:04:55;61097.09;;;-144.06;45.98
11017;BME280;54687;50.800;6.772;2023-02-15T13:07:28;61071.94;;;-144.06;46.25
11017;BME280;54687;50.800;6.772;2023-02-15T13:09:56;61078.25;;;-144.06;46.01